Time;durP1;ratioP1;P1;durP2;ratioP2;P2;SDS_P1;SDS_P2;PMS_P1;PMS_P2;Temp;Humidity;BMP_temperature;BMP_pressure;BME280_temperature;BME280_humidity;BME280_pressure;Samples;Min_cycle;Max_cycle;Signal;HPM_P1;HPM_P2
2022/04/06 00:01:19;;;;;;;1.42;0.50;;;22.20;38.60;;;;;;6257455;28;20046;-43
2022/04/06 00:04:23;;;;;;;1.67;0.68;;;22.20;38.60;;;;;;6258017;28;20082;-44
2022/04/06 00:07:25;;;;;;;0.98;0.40;;;22.20;38.60;;;;;;6258957;28;20055;-44
2022/04/06 00:10:29;;;;;;;1.90;0.50;;;22.20;38.70;;;;;;6271998;27;20103;-42
2022/04/06 00:13:30;;;;;;;1.23;0.68;;;22.20;38.70;;;;;;6261230;28;20072;-44
2022/04/06 00:16:32;;;;;;;1.15;0.68;;;22.20;38.70;;;;;;6278966;27;20071;-45
2022/04/06 00:19:35;;;;;;;0.88;0.50;;;22.30;38.80;;;;;;6283365;27;20078;-47
2022/04/06 00:22:37;;;;;;;0.73;0.40;;;22.20;39.40;;;;;;6263209;27;20047;-42
2022/04/06 00:25:39;;;;;;;0.73;0.43;;;22.20;38.80;;;;;;6265605;28;20901;-43
2022/04/06 00:28:40;;;;;;;0.80;0.40;;;22.20;38.80;;;;;;6272076;27;20052;-44
2022/04/06 00:31:41;;;;;;;;;;;22.20;38.80;;;;;;6283986;27;20047;-44
2022/04/06 00:38:02;;;;;;;0.80;0.40;;;22.00;38.70;;;;;;6274835;27;20101;-45
2022/04/06 00:41:04;;;;;;;0.88;0.40;;;22.10;38.80;;;;;;6263693;27;21180;-43
2022/04/06 00:44:10;;;;;;;0.45;0.30;;;22.10;38.80;;;;;;6287864;27;20043;-43
2022/04/06 00:47:11;;;;;;;0.55;0.40;;;22.10;38.90;;;;;;6263792;28;20143;-43
2022/04/06 00:50:13;;;;;;;;;;;22.10;38.80;;;;;;6287830;27;20040;-43
2022/04/06 00:53:15;;;;;;;0.80;0.40;;;22.10;38.90;;;;;;6257450;28;20031;-43
2022/04/06 00:56:17;;;;;;;1.20;0.50;;;22.10;38.90;;;;;;6287781;27;20032;-43
2022/04/06 00:59:19;;;;;;;0.95;0.60;;;22.10;38.90;;;;;;6263315;28;20063;-45
2022/04/06 01:02:20;;;;;;;0.40;0.20;;;22.00;38.80;;;;;;6245660;28;20481;-43
2022/04/06 01:05:25;;;;;;;0.73;0.30;;;22.10;38.90;;;;;;6258491;28;20353;-43
2022/04/06 01:08:27;;;;;;;0.40;0.28;;;22.00;38.90;;;;;;6275370;28;20120;-44
2022/04/06 01:11:29;;;;;;;0.50;0.30;;;22.10;38.90;;;;;;6270172;28;20335;-43
2022/04/06 01:14:30;;;;;;;0.30;0.20;;;22.00;38.80;;;;;;6263111;28;20494;-43
2022/04/06 01:17:33;;;;;;;0.20;0.20;;;22.00;38.80;;;;;;6256985;28;20044;-43
2022/04/06 01:20:36;;;;;;;0.75;0.30;;;22.10;38.80;;;;;;6261278;28;20169;-45
2022/04/06 01:23:39;;;;;;;1.20;0.40;;;22.10;38.80;;;;;;6272996;28;20150;-45
2022/04/06 01:26:40;;;;;;;0.60;0.20;;;22.00;38.70;;;;;;6271945;28;20040;-43
2022/04/06 01:29:43;;;;;;;0.22;0.20;;;22.10;38.80;;;;;;6269666;28;20124;-43
2022/04/06 01:32:44;;;;;;;0.75;0.30;;;22.10;38.70;;;;;;6250219;28;20106;-46
2022/04/06 01:35:47;;;;;;;0.40;0.30;;;22.10;38.70;;;;;;6274515;28;20407;-44
2022/04/06 01:38:49;;;;;;;0.50;0.22;;;22.10;38.70;;;;;;6258509;28;20088;-43
2022/04/06 01:41:51;;;;;;;0.57;0.30;;;22.10;38.70;;;;;;6279346;27;21372;-44
2022/04/06 01:44:53;;;;;;;0.40;0.20;;;22.00;38.60;;;;;;6268112;28;20729;-43
2022/04/06 01:47:54;;;;;;;0.65;0.30;;;22.10;38.70;;;;;;6262299;28;20124;-43
2022/04/06 01:54:12;;;;;;;0.30;0.30;;;22.10;38.70;;;;;;6286740;27;20612;-45
2022/04/06 01:57:15;;;;;;;0.40;0.40;;;22.10;38.70;;;;;;6269941;28;20971;-43
2022/04/06 02:00:18;;;;;;;0.30;0.30;;;22.10;38.80;;;;;;6269465;28;20629;-43
2022/04/06 02:03:20;;;;;;;0.28;0.20;;;22.00;38.70;;;;;;6274511;28;20292;-43
2022/04/06 02:06:22;;;;;;;0.45;0.30;;;22.00;38.70;;;;;;6265401;27;20395;-43
2022/04/06 02:09:24;;;;;;;0.60;0.25;;;22.00;38.70;;;;;;6256994;28;20945;-43
2022/04/06 02:12:27;;;;;;;0.55;0.22;;;22.10;38.70;;;;;;6263070;28;20970;-44
2022/04/06 02:15:28;;;;;;;0.50;0.20;;;22.00;38.70;;;;;;6260476;27;20214;-46
2022/04/06 02:18:30;;;;;;;0.65;0.30;;;22.00;38.70;;;;;;6273569;27;20333;-43
2022/04/06 02:21:32;;;;;;;0.50;0.30;;;22.00;38.70;;;;;;6264427;27;20118;-45
2022/04/06 02:24:34;;;;;;;0.55;0.30;;;22.10;38.80;;;;;;6264785;28;20655;-44
2022/04/06 02:27:44;;;;;;;0.40;0.30;;;22.00;38.70;;;;;;6270485;28;20949;-44
2022/04/06 02:30:45;;;;;;;0.50;0.40;;;22.00;38.70;;;;;;6265540;28;20047;-44
2022/04/06 02:33:47;;;;;;;;;;;21.90;38.70;;;;;;6268759;28;20038;-44
2022/04/06 02:36:48;;;;;;;0.40;0.20;;;22.00;38.70;;;;;;6274835;27;20797;-43
2022/04/06 02:39:50;;;;;;;0.70;0.30;;;22.00;38.70;;;;;;6277753;27;20131;-43
2022/04/06 02:42:52;;;;;;;0.35;0.20;;;22.00;38.70;;;;;;6264253;28;21025;-45
2022/04/06 02:45:53;;;;;;;0.30;0.20;;;22.00;38.70;;;;;;6267922;27;20126;-43
2022/04/06 02:48:55;;;;;;;0.30;0.20;;;22.00;38.70;;;;;;6250403;28;20150;-43
2022/04/06 02:51:56;;;;;;;;;;;22.00;38.70;;;;;;6271754;27;20468;-45
2022/04/06 02:54:59;;;;;;;0.20;0.13;;;21.80;38.50;;;;;;6277165;27;20232;-43
2022/04/06 02:58:00;;;;;;;0.43;0.30;;;21.90;38.60;;;;;;6256752;28;20044;-42
2022/04/06 03:01:01;;;;;;;;;;;21.80;38.50;;;;;;6277725;27;20167;-43
2022/04/06 03:04:03;;;;;;;0.25;0.20;;;21.90;38.50;;;;;;6268347;27;19931;-44
2022/04/06 03:07:05;;;;;;;0.35;0.20;;;21.90;38.60;;;;;;6275742;27;20736;-42
2022/04/06 03:10:07;;;;;;;;;;;21.90;38.50;;;;;;6264422;27;20547;-43
2022/04/06 03:13:09;;;;;;;0.20;0.20;;;22.00;38.60;;;;;;6278013;27;19923;-45
2022/04/06 03:16:11;;;;;;;0.38;0.30;;;21.80;38.40;;;;;;6288153;27;20051;-43
2022/04/06 03:19:12;;;;;;;;;;;22.00;38.50;;;;;;6261183;28;20063;-42
2022/04/06 03:22:17;;;;;;;0.50;0.22;;;21.90;38.50;;;;;;6279842;28;20080;-41
2022/04/06 03:25:20;;;;;;;0.55;0.30;;;21.90;38.50;;;;;;6282418;27;20050;-42
2022/04/06 03:28:21;;;;;;;0.93;0.38;;;21.90;38.60;;;;;;6278820;27;20383;-42
2022/04/06 03:31:22;;;;;;;;;;;22.00;38.70;;;;;;6284411;27;20392;-44
2022/04/06 03:34:24;;;;;;;1.48;0.20;;;22.00;38.80;;;;;;6249203;28;20000;-45
2022/04/06 03:37:26;;;;;;;0.40;0.20;;;22.00;38.70;;;;;;6274664;28;21033;-43
2022/04/06 03:40:28;;;;;;;;;;;22.00;38.80;;;;;;6277655;27;20084;-43
2022/04/06 03:43:30;;;;;;;0.43;0.25;;;21.80;38.70;;;;;;6282549;27;20260;-44
2022/04/06 03:46:32;;;;;;;2.03;0.20;;;22.00;38.70;;;;;;6280049;27;20303;-43
2022/04/06 03:49:33;;;;;;;1.55;0.22;;;22.00;38.70;;;;;;6278855;27;20474;-43
2022/04/06 03:52:35;;;;;;;0.10;0.10;;;22.00;38.70;;;;;;6276922;27;20283;-42
2022/04/06 03:55:37;;;;;;;0.20;0.20;;;21.90;38.60;;;;;;6257680;28;20624;-44
2022/04/06 03:58:38;;;;;;;0.45;0.20;;;22.10;38.70;;;;;;6281527;27;20917;-43
2022/04/06 04:01:40;;;;;;;;;;;21.90;38.70;;;;;;6260590;27;20369;-44
2022/04/06 04:04:41;;;;;;;0.28;0.10;;;22.00;38.70;;;;;;6265304;28;19927;-44
2022/04/06 04:07:44;;;;;;;0.10;0.10;;;21.90;38.70;;;;;;6276239;27;20039;-42
2022/04/06 04:10:46;;;;;;;0.17;0.10;;;21.90;38.60;;;;;;6265838;28;20217;-43
2022/04/06 04:13:48;;;;;;;0.85;0.10;;;21.80;38.50;;;;;;6280076;27;20451;-43
2022/04/06 04:16:49;;;;;;;0.10;0.10;;;21.90;38.60;;;;;;6279771;27;20677;-43
2022/04/06 04:19:50;;;;;;;;;;;21.90;38.60;;;;;;6268765;27;21021;-44
2022/04/06 04:22:52;;;;;;;0.47;0.10;;;21.80;38.60;;;;;;6272756;27;20242;-45
2022/04/06 04:25:54;;;;;;;;;;;21.90;38.60;;;;;;6266160;27;20932;-44
2022/04/06 04:28:56;;;;;;;0.10;0.10;;;22.10;38.70;;;;;;6271713;27;19970;-43
2022/04/06 04:31:57;;;;;;;0.38;0.10;;;21.90;38.60;;;;;;6258716;28;20040;-42
2022/04/06 04:35:00;;;;;;;0.10;0.10;;;21.90;38.60;;;;;;6266674;27;20308;-43
2022/04/06 04:38:01;;;;;;;0.40;0.20;;;21.90;38.60;;;;;;6255025;27;21966;-43
2022/04/06 04:41:03;;;;;;;;;;;21.90;38.60;;;;;;6259560;28;20098;-43
2022/04/06 04:44:05;;;;;;;0.40;0.10;;;21.90;38.60;;;;;;6255419;28;19977;-42
2022/04/06 04:47:07;;;;;;;0.50;0.20;;;21.90;38.60;;;;;;6261601;28;20036;-43
2022/04/06 04:50:10;;;;;;;0.40;0.10;;;21.90;38.60;;;;;;6259261;28;20352;-43
2022/04/06 04:53:11;;;;;;;0.10;0.10;;;21.90;38.60;;;;;;6276683;27;20058;-43
2022/04/06 04:56:16;;;;;;;0.35;0.20;;;21.80;38.60;;;;;;6267020;28;20312;-44
2022/04/06 04:59:18;;;;;;;0.28;0.20;;;21.90;38.60;;;;;;6260045;28;21126;-44
2022/04/06 05:02:19;;;;;;;0.10;0.10;;;21.90;38.60;;;;;;6259129;28;20052;-44
2022/04/06 05:05:21;;;;;;;0.20;0.10;;;21.80;38.50;;;;;;6262866;28;20043;-45
2022/04/06 05:08:23;;;;;;;0.10;0.10;;;21.90;38.60;;;;;;6265227;28;20081;-45
2022/04/06 05:11:25;;;;;;;0.00;0.00;;;21.80;38.60;;;;;;6274438;27;20049;-44
2022/04/06 05:14:27;;;;;;;0.10;0.10;;;21.90;38.70;;;;;;6256376;28;20113;-43
2022/04/06 05:17:28;;;;;;;0.10;0.10;;;21.90;38.60;;;;;;6270176;28;20980;-44
2022/04/06 05:20:30;;;;;;;0.10;0.10;;;21.90;38.70;;;;;;6283427;27;20085;-44
2022/04/06 05:23:31;;;;;;;0.20;0.10;;;21.90;38.70;;;;;;6273398;28;20063;-45
2022/04/06 05:26:33;;;;;;;;;;;21.90;38.60;;;;;;6275913;27;20130;-44
2022/04/06 05:29:35;;;;;;;0.30;0.20;;;21.90;38.70;;;;;;6272742;27;19934;-45
2022/04/06 05:32:36;;;;;;;;;;;21.80;38.60;;;;;;6274473;28;20928;-42
2022/04/06 05:35:38;;;;;;;0.13;0.10;;;21.80;38.60;;;;;;6274022;28;20034;-44
2022/04/06 05:38:39;;;;;;;0.43;0.10;;;21.80;38.70;;;;;;6282853;28;20050;-47
2022/04/06 05:41:41;;;;;;;0.30;0.10;;;21.80;38.70;;;;;;6270144;28;20042;-45
2022/04/06 05:44:43;;;;;;;0.82;0.10;;;21.80;38.70;;;;;;6276153;27;20944;-44
2022/04/06 05:47:45;;;;;;;0.10;0.10;;;21.80;38.70;;;;;;6291189;28;20964;-44
2022/04/06 05:50:47;;;;;;;0.40;0.20;;;21.90;38.70;;;;;;6256182;27;20155;-43
2022/04/06 05:53:48;;;;;;;;;;;21.90;38.70;;;;;;6274740;27;21156;-46
2022/04/06 05:56:50;;;;;;;0.65;0.20;;;22.00;38.70;;;;;;6262362;27;19971;-45
2022/04/06 05:59:52;;;;;;;0.10;0.10;;;21.90;38.60;;;;;;6249410;28;20429;-44
2022/04/06 06:02:53;;;;;;;;;;;21.90;38.60;;;;;;6228895;27;20079;-44
2022/04/06 06:05:55;;;;;;;0.52;0.13;;;20.80;38.00;;;;;;6265656;28;20143;-43
2022/04/06 06:08:56;;;;;;;0.30;0.20;;;22.00;38.60;;;;;;6276746;27;20036;-46
2022/04/06 06:11:59;;;;;;;;;;;22.00;38.60;;;;;;6215031;28;20043;-44
2022/04/06 06:15:01;;;;;;;0.40;0.20;;;22.00;38.50;;;;;;6253250;28;20043;-44
2022/04/06 06:18:03;;;;;;;0.22;0.13;;;22.00;38.50;;;;;;6243961;28;20935;-45
2022/04/06 06:21:05;;;;;;;0.22;0.10;;;22.10;38.60;;;;;;6251232;27;20043;-45
2022/04/06 06:24:07;;;;;;;0.32;0.15;;;22.00;38.50;;;;;;6235641;27;20043;-46
2022/04/06 06:27:09;;;;;;;0.10;0.10;;;22.10;38.60;;;;;;6237979;27;21184;-42
2022/04/06 06:30:13;;;;;;;0.20;0.20;;;22.00;38.60;;;;;;6252853;27;21393;-45
2022/04/06 06:33:14;;;;;;;0.30;0.20;;;22.00;38.60;;;;;;6226294;27;20051;-44
2022/04/06 06:36:16;;;;;;;0.10;0.10;;;22.10;38.60;;;;;;6219815;28;20985;-45
2022/04/06 06:39:17;;;;;;;0.52;0.20;;;22.30;38.80;;;;;;6215118;28;20074;-46
2022/04/06 06:42:19;;;;;;;;;;;22.30;38.80;;;;;;6218884;28;20048;-44
2022/04/06 06:45:22;;;;;;;0.25;0.13;;;22.20;38.70;;;;;;6193831;28;19928;-46
2022/04/06 06:48:23;;;;;;;0.77;0.30;;;22.30;38.70;;;;;;6191420;28;20532;-44
2022/04/06 06:51:26;;;;;;;;;;;22.30;38.80;;;;;;6164558;28;20332;-46
2022/04/06 06:54:28;;;;;;;0.45;0.30;;;22.30;38.60;;;;;;6169227;28;20121;-43
2022/04/06 06:57:30;;;;;;;0.40;0.20;;;22.30;38.60;;;;;;6169173;27;20871;-47
2022/04/06 07:00:32;;;;;;;0.65;0.40;;;22.40;38.60;;;;;;6156355;27;22644;-45
2022/04/06 07:03:34;;;;;;;0.70;0.30;;;22.30;38.60;;;;;;6110474;27;21187;-47
2022/04/06 07:06:35;;;;;;;0.85;0.32;;;22.40;38.70;;;;;;6108044;28;20142;-47
2022/04/06 07:09:37;;;;;;;;;;;22.40;38.70;;;;;;6115962;27;20036;-46
2022/04/06 07:12:39;;;;;;;0.88;0.22;;;22.40;38.80;;;;;;6123507;27;21097;-44
2022/04/06 07:15:41;;;;;;;0.40;0.22;;;22.40;38.70;;;;;;6139711;27;20122;-44
2022/04/06 07:18:43;;;;;;;0.85;0.40;;;22.40;38.80;;;;;;6145978;27;20044;-47
2022/04/06 07:21:44;;;;;;;1.45;0.30;;;22.50;38.90;;;;;;6107481;27;20058;-44
2022/04/06 07:24:46;;;;;;;0.88;0.38;;;22.50;38.90;;;;;;6106766;27;20104;-45
2022/04/06 07:27:51;;;;;;;0.35;0.20;;;22.50;38.90;;;;;;6115251;27;20067;-45
2022/04/06 07:30:53;;;;;;;0.80;0.50;;;22.50;38.90;;;;;;6090065;27;20066;-45
2022/04/06 07:33:54;;;;;;;;;;;22.60;39.00;;;;;;6081945;27;20139;-45
2022/04/06 07:36:56;;;;;;;0.47;0.28;;;22.60;39.00;;;;;;6074916;28;21479;-44
2022/04/06 07:40:04;;;;;;;1.75;0.30;;;22.60;39.00;;;;;;6064313;27;20204;-45
2022/04/06 07:43:06;;;;;;;0.50;0.20;;;22.60;39.00;;;;;;6071359;27;20379;-46
2022/04/06 07:46:08;;;;;;;0.68;0.30;;;22.70;39.20;;;;;;6073166;27;20043;-46
2022/04/06 07:49:10;;;;;;;0.30;0.25;;;22.50;38.90;;;;;;6075429;27;20044;-45
2022/04/06 07:52:11;;;;;;;0.30;0.20;;;22.70;39.00;;;;;;6076422;27;20082;-47
2022/04/06 07:55:14;;;;;;;0.95;0.22;;;22.70;38.90;;;;;;6080374;27;20048;-45
2022/04/06 07:58:18;;;;;;;0.20;0.20;;;22.70;38.90;;;;;;6066323;27;20043;-46
2022/04/06 08:01:20;;;;;;;0.45;0.13;;;22.70;38.90;;;;;;6081026;27;22116;-44
2022/04/06 08:04:22;;;;;;;0.85;0.40;;;22.70;39.60;;;;;;6051927;27;20078;-44
2022/04/06 08:07:24;;;;;;;1.42;0.30;;;22.70;38.90;;;;;;6031140;27;20051;-45
2022/04/06 08:10:30;;;;;;;1.63;0.40;;;22.80;38.90;;;;;;6048219;27;20195;-47
2022/04/06 08:13:32;;;;;;;0.93;0.20;;;22.80;38.90;;;;;;6061353;27;21538;-46
2022/04/06 08:16:34;;;;;;;1.65;0.38;;;22.80;38.90;;;;;;6032351;27;20175;-44
2022/04/06 08:19:36;;;;;;;0.60;0.50;;;22.80;38.90;;;;;;6073030;28;20047;-45
2022/04/06 08:22:38;;;;;;;4.15;0.50;;;22.70;38.80;;;;;;6073093;28;20052;-46
2022/04/06 08:25:40;;;;;;;1.13;0.63;;;22.90;39.00;;;;;;6079037;28;20245;-44
2022/04/06 08:28:42;;;;;;;0.63;0.20;;;22.80;38.80;;;;;;6090484;28;20052;-43
2022/04/06 08:31:44;;;;;;;1.08;0.43;;;22.90;38.80;;;;;;6049309;27;20040;-47
2022/04/06 08:34:46;;;;;;;0.80;0.30;;;22.90;38.80;;;;;;6073524;27;20082;-46
2022/04/06 08:37:47;;;;;;;2.97;0.30;;;22.80;38.70;;;;;;6060368;28;21924;-46
2022/04/06 08:40:50;;;;;;;0.73;0.40;;;23.00;38.80;;;;;;6067364;28;20164;-45
2022/04/06 08:43:52;;;;;;;1.58;0.47;;;23.00;38.80;;;;;;6080781;28;20036;-44
2022/04/06 08:46:59;;;;;;;1.42;0.60;;;23.00;38.70;;;;;;6053250;28;20071;-45
2022/04/06 08:50:03;;;;;;;1.58;0.45;;;22.90;38.70;;;;;;6075939;27;20178;-46
2022/04/06 08:53:07;;;;;;;1.00;0.43;;;23.00;38.70;;;;;;6103820;27;20047;-44
2022/04/06 08:56:12;;;;;;;1.50;0.50;;;23.00;38.70;;;;;;6104030;27;20093;-46
2022/04/06 08:59:14;;;;;;;0.63;0.40;;;23.00;38.80;;;;;;6073707;27;20036;-44
2022/04/06 09:02:18;;;;;;;2.40;0.47;;;23.10;38.80;;;;;;6067629;27;20044;-48
2022/04/06 09:05:21;;;;;;;2.25;0.52;;;23.10;38.80;;;;;;6077282;27;20165;-45
2022/04/06 09:08:33;;;;;;;1.70;0.50;;;23.10;38.90;;;;;;6064601;27;20051;-47
2022/04/06 09:11:42;;;;;;;2.40;0.70;;;23.10;38.80;;;;;;6073243;27;20055;-44
2022/04/06 09:14:48;;;;;;;0.65;0.30;;;23.10;38.90;;;;;;6067815;28;20047;-44
2022/04/06 09:17:52;;;;;;;2.45;0.43;;;23.10;38.90;;;;;;6089474;28;20047;-45
2022/04/06 09:20:59;;;;;;;1.38;0.70;;;23.10;38.90;;;;;;6097657;27;21385;-43
2022/04/06 09:24:01;;;;;;;1.60;0.70;;;23.10;39.10;;;;;;6093246;27;20137;-45
2022/04/06 09:27:04;;;;;;;1.05;0.57;;;23.10;39.00;;;;;;6103139;27;23000;-44
2022/04/06 09:30:09;;;;;;;2.53;0.80;;;23.20;39.10;;;;;;6088643;27;20090;-45
2022/04/06 09:33:15;;;;;;;1.98;0.65;;;23.20;39.20;;;;;;6070678;28;20087;-44
2022/04/06 09:36:19;;;;;;;1.90;0.57;;;23.30;39.20;;;;;;6009639;28;20044;-46
2022/04/06 09:39:42;;;;;;;0.68;0.30;;;23.30;39.20;;;;;;6050019;28;21522;-44
2022/04/06 09:42:50;;;;;;;1.25;0.50;;;23.30;39.40;;;;;;6028140;27;20044;-49
2022/04/06 09:49:10;;;;;;;4.57;0.63;;;23.30;39.50;;;;;;6050056;27;20159;-45
2022/04/06 09:52:13;;;;;;;1.13;0.30;;;23.30;39.40;;;;;;6072962;27;20167;-45
2022/04/06 09:55:16;;;;;;;1.65;0.60;;;23.40;39.50;;;;;;6059745;28;20219;-47
2022/04/06 09:58:18;;;;;;;2.08;0.60;;;23.40;39.50;;;;;;6072997;28;20036;-47
2022/04/06 10:01:21;;;;;;;1.90;0.40;;;23.40;39.40;;;;;;6040024;27;20158;-47
2022/04/06 10:04:25;;;;;;;1.55;0.40;;;23.40;39.40;;;;;;6051866;27;22763;-47
2022/04/06 10:07:28;;;;;;;1.58;0.40;;;23.50;39.40;;;;;;6046144;28;20048;-47
2022/04/06 10:10:31;;;;;;;0.90;0.30;;;23.40;39.30;;;;;;6086128;27;20040;-47
2022/04/06 10:13:33;;;;;;;0.43;0.20;;;23.50;39.30;;;;;;6119800;27;22304;-45
2022/04/06 10:16:57;;;;;;;3.13;0.68;;;23.50;39.40;;;;;;6122128;27;20039;-45
2022/04/06 10:20:07;;;;;;;1.05;0.40;;;23.40;39.30;;;;;;6139801;27;20047;-47
2022/04/06 10:23:13;;;;;;;0.37;0.20;;;23.50;39.30;;;;;;6089042;28;20211;-46
2022/04/06 10:26:48;;;;;;;0.57;0.20;;;23.40;39.30;;;;;;6106783;28;20274;-44
2022/04/06 10:30:09;;;;;;;0.90;0.30;;;23.40;39.20;;;;;;6122598;28;20173;-45
2022/04/06 10:33:20;;;;;;;0.45;0.25;;;23.40;39.30;;;;;;6151228;27;21349;-42
2022/04/06 10:36:23;;;;;;;;;;;23.40;39.40;;;;;;6145403;27;21470;-45
2022/04/06 10:39:25;;;;;;;0.90;0.30;;;23.30;39.40;;;;;;6160644;27;20040;-44
2022/04/06 10:42:32;;;;;;;0.55;0.25;;;23.40;39.50;;;;;;6193560;27;20071;-43
2022/04/06 10:45:35;;;;;;;0.30;0.30;;;23.30;39.50;;;;;;6160419;27;20671;-48
2022/04/06 10:48:56;;;;;;;0.98;0.32;;;23.40;39.50;;;;;;6171544;27;20158;-46
2022/04/06 10:51:59;;;;;;;1.30;0.30;;;23.40;39.60;;;;;;6195717;27;20511;-43
2022/04/06 10:55:09;;;;;;;0.82;0.20;;;23.40;39.60;;;;;;6174420;27;20642;-43
2022/04/06 10:58:11;;;;;;;0.65;0.20;;;23.40;39.70;;;;;;6154961;28;20043;-42
2022/04/06 11:01:14;;;;;;;1.27;0.20;;;23.40;39.80;;;;;;6184500;27;21389;-43
2022/04/06 11:04:19;;;;;;;0.85;0.20;;;23.40;39.80;;;;;;6126041;28;20061;-43
2022/04/06 11:11:26;;;;;;;0.40;0.20;;;23.40;40.00;;;;;;6190657;27;20275;-43
2022/04/06 11:14:28;;;;;;;1.63;0.22;;;23.40;40.00;;;;;;6186942;27;20040;-42
2022/04/06 11:17:38;;;;;;;0.52;0.20;;;23.30;39.90;;;;;;6195796;27;20054;-45
2022/04/06 11:20:41;;;;;;;1.38;0.38;;;23.30;39.90;;;;;;6162401;28;20043;-44
2022/04/06 11:23:43;;;;;;;1.17;0.20;;;23.30;40.00;;;;;;6169196;28;20146;-44
2022/04/06 11:26:44;;;;;;;0.80;0.15;;;23.20;39.90;;;;;;6198741;27;20043;-42
2022/04/06 11:29:47;;;;;;;1.17;0.30;;;23.30;39.90;;;;;;6190977;27;20198;-44
2022/04/06 11:32:51;;;;;;;0.25;0.10;;;23.30;39.90;;;;;;6159576;27;20046;-45
2022/04/06 11:35:53;;;;;;;0.20;0.10;;;23.30;40.00;;;;;;6119639;27;20046;-48
2022/04/06 11:38:55;;;;;;;0.60;0.20;;;23.20;39.80;;;;;;6172022;27;20039;-46
2022/04/06 11:41:57;;;;;;;0.75;0.40;;;23.20;39.80;;;;;;6177418;27;20052;-47
2022/04/06 11:44:59;;;;;;;0.98;0.40;;;23.20;39.80;;;;;;6155796;27;20045;-45
2022/04/06 11:48:02;;;;;;;1.48;0.50;;;23.20;39.70;;;;;;6147013;27;20064;-47
2022/04/06 11:51:04;;;;;;;0.50;0.30;;;23.20;39.80;;;;;;6125187;27;20167;-45
2022/04/06 11:54:06;;;;;;;0.47;0.40;;;23.30;39.90;;;;;;6142937;27;20042;-43
2022/04/06 11:57:07;;;;;;;0.75;0.20;;;23.20;40.40;;;;;;6140403;27;20067;-44
2022/04/06 12:00:11;;;;;;;1.55;0.80;;;23.30;39.30;;;;;;6115558;28;20079;-43
2022/04/06 12:03:17;;;;;;;0.68;0.30;;;23.30;39.70;;;;;;6069893;27;22590;-44
2022/04/06 12:06:20;;;;;;;1.65;0.20;;;23.30;39.60;;;;;;6079346;27;20039;-45
2022/04/06 12:09:23;;;;;;;0.85;0.30;;;23.30;39.50;;;;;;6053692;27;20240;-44
2022/04/06 12:12:25;;;;;;;1.75;0.60;;;23.30;39.40;;;;;;6052067;28;20051;-43
2022/04/06 12:15:27;;;;;;;1.27;0.45;;;23.40;39.30;;;;;;6080793;28;20047;-44
2022/04/06 12:18:30;;;;;;;1.00;0.40;;;23.40;39.30;;;;;;6078658;27;20130;-46
2022/04/06 12:21:39;;;;;;;2.38;0.30;;;23.40;39.20;;;;;;6100685;27;23283;-43
2022/04/06 12:24:42;;;;;;;1.55;0.40;;;23.50;39.20;;;;;;6084330;27;21514;-46
2022/04/06 12:27:43;;;;;;;0.30;0.20;;;23.50;39.10;;;;;;6053528;27;21267;-45
2022/04/06 12:30:53;;;;;;;2.03;0.50;;;23.50;39.00;;;;;;6091535;27;20056;-44
2022/04/06 12:33:55;;;;;;;2.17;0.35;;;23.50;39.10;;;;;;6059396;27;20050;-45
2022/04/06 12:36:57;;;;;;;1.40;0.30;;;23.50;39.00;;;;;;6066516;27;20167;-45
2022/04/06 12:40:00;;;;;;;0.63;0.30;;;23.60;38.90;;;;;;6059205;27;20047;-46
2022/04/06 12:43:02;;;;;;;1.83;0.30;;;23.50;38.90;;;;;;6073610;28;20106;-45
2022/04/06 12:46:04;;;;;;;0.45;0.30;;;23.50;38.80;;;;;;6071418;27;20039;-46
2022/04/06 12:49:22;;;;;;;1.83;0.30;;;23.60;38.80;;;;;;6082258;27;20052;-47
2022/04/06 12:52:25;;;;;;;3.03;0.50;;;23.50;38.70;;;;;;6109176;27;20059;-45
2022/04/06 12:55:27;;;;;;;0.80;0.30;;;23.60;38.70;;;;;;6128763;27;20075;-47
2022/04/06 12:58:29;;;;;;;1.88;0.30;;;23.50;38.60;;;;;;6131825;27;20048;-46
2022/04/06 13:01:31;;;;;;;0.95;0.20;;;23.60;38.60;;;;;;6052367;27;20051;-46
2022/04/06 13:04:38;;;;;;;1.17;0.20;;;23.60;38.70;;;;;;6074416;28;20048;-47
2022/04/06 13:07:41;;;;;;;1.10;0.40;;;23.60;38.60;;;;;;6070313;27;20151;-46
2022/04/06 13:10:43;;;;;;;0.88;0.20;;;23.50;38.60;;;;;;6092690;27;20036;-49
2022/04/06 13:13:45;;;;;;;0.73;0.25;;;23.60;38.60;;;;;;6087297;28;22882;-47
2022/04/06 13:16:47;;;;;;;0.57;0.15;;;23.60;38.50;;;;;;6097001;27;21598;-48
2022/04/06 13:19:49;;;;;;;1.17;0.30;;;23.40;38.40;;;;;;6086345;27;21098;-45
2022/04/06 13:22:52;;;;;;;0.57;0.40;;;23.50;38.50;;;;;;6051708;28;20168;-48
2022/04/06 13:25:54;;;;;;;0.85;0.40;;;23.60;38.40;;;;;;6054492;27;21136;-46
2022/04/06 13:28:55;;;;;;;1.55;0.30;;;23.70;38.30;;;;;;6100755;27;20618;-45
2022/04/06 13:31:57;;;;;;;0.68;0.10;;;23.70;38.40;;;;;;6059934;28;22381;-46
2022/04/06 13:35:00;;;;;;;0.55;0.30;;;23.70;38.40;;;;;;6036201;27;20035;-46
2022/04/06 13:38:02;;;;;;;0.47;0.25;;;23.70;38.40;;;;;;6086396;27;21584;-47
2022/04/06 13:41:04;;;;;;;0.40;0.20;;;23.70;38.40;;;;;;6101815;27;21099;-44
2022/04/06 13:44:07;;;;;;;0.85;0.30;;;23.70;38.40;;;;;;6109103;27;21003;-46
2022/04/06 13:47:08;;;;;;;1.70;0.20;;;23.80;38.40;;;;;;6106890;27;20154;-45
2022/04/06 13:50:10;;;;;;;1.63;0.50;;;23.70;38.40;;;;;;6076948;27;21356;-46
2022/04/06 13:53:12;;;;;;;0.85;0.30;;;23.70;38.50;;;;;;6069687;28;20166;-48
2022/04/06 13:56:14;;;;;;;0.82;0.40;;;23.70;38.50;;;;;;6064107;27;20055;-45
2022/04/06 13:59:16;;;;;;;1.50;0.30;;;23.70;39.10;;;;;;6105044;28;20088;-49
2022/04/06 14:02:17;;;;;;;2.42;0.40;;;23.70;38.90;;;;;;6057014;27;20138;-48
2022/04/06 14:05:19;;;;;;;1.48;0.40;;;23.80;38.70;;;;;;6047214;28;20185;-49
2022/04/06 14:08:22;;;;;;;0.80;0.32;;;23.70;38.70;;;;;;6077143;28;20051;-47
2022/04/06 14:11:24;;;;;;;0.77;0.40;;;23.70;38.90;;;;;;6086312;27;20392;-45
2022/04/06 14:14:26;;;;;;;0.73;0.20;;;23.70;38.90;;;;;;6066263;27;20160;-45
2022/04/06 14:17:28;;;;;;;1.02;0.40;;;23.70;39.00;;;;;;6048242;28;20475;-45
2022/04/06 14:20:30;;;;;;;2.72;0.43;;;23.70;39.10;;;;;;6115049;27;20036;-47
2022/04/06 14:23:33;;;;;;;0.93;0.30;;;23.70;39.20;;;;;;6091390;27;20048;-48
2022/04/06 14:26:37;;;;;;;1.80;0.40;;;23.70;39.20;;;;;;6106258;27;20047;-46
2022/04/06 14:29:38;;;;;;;0.93;0.47;;;23.70;39.30;;;;;;6046635;27;20054;-47
2022/04/06 14:32:40;;;;;;;2.17;0.45;;;23.60;39.30;;;;;;6039762;27;20584;-47
2022/04/06 14:35:42;;;;;;;0.80;0.17;;;23.70;39.30;;;;;;6101378;27;20145;-46
2022/04/06 14:38:44;;;;;;;1.10;0.40;;;23.50;39.40;;;;;;6074226;28;20046;-49
2022/04/06 14:41:47;;;;;;;3.70;0.30;;;23.60;39.70;;;;;;6087007;28;20043;-47
2022/04/06 14:44:49;;;;;;;0.55;0.28;;;23.60;39.70;;;;;;6115890;27;20039;-46
2022/04/06 14:47:51;;;;;;;1.55;0.40;;;23.60;39.90;;;;;;6076928;27;20051;-47
2022/04/06 14:50:53;;;;;;;1.55;0.47;;;23.60;40.00;;;;;;6092337;27;20051;-46
2022/04/06 14:53:55;;;;;;;2.60;0.32;;;23.60;40.10;;;;;;6098930;27;20043;-48
2022/04/06 14:56:57;;;;;;;1.35;0.55;;;23.60;40.20;;;;;;6086724;27;20054;-48
2022/04/06 15:00:03;;;;;;;1.23;0.40;;;23.60;40.30;;;;;;6102108;27;20036;-47
2022/04/06 15:03:06;;;;;;;2.58;0.47;;;23.50;40.30;;;;;;6091897;28;20154;-46
2022/04/06 15:06:08;;;;;;;0.88;0.50;;;23.50;40.40;;;;;;6100651;28;20051;-46
2022/04/06 15:09:10;;;;;;;2.20;0.40;;;23.60;40.60;;;;;;6068810;28;22618;-48
2022/04/06 15:12:12;;;;;;;1.05;0.30;;;23.50;40.60;;;;;;6108244;27;20063;-49
2022/04/06 15:15:14;;;;;;;1.95;0.55;;;23.60;40.80;;;;;;6110413;27;21658;-46
2022/04/06 15:18:21;;;;;;;1.45;0.22;;;23.50;40.80;;;;;;6085507;27;20166;-45
2022/04/06 15:21:23;;;;;;;0.90;0.30;;;23.50;40.90;;;;;;6123899;27;20079;-48
2022/04/06 15:24:25;;;;;;;0.40;0.20;;;23.60;41.10;;;;;;6131818;27;20043;-46
2022/04/06 15:27:27;;;;;;;0.60;0.35;;;23.60;41.20;;;;;;6121247;27;20052;-46
2022/04/06 15:30:29;;;;;;;0.70;0.47;;;23.60;41.30;;;;;;6116130;28;22080;-45
2022/04/06 15:33:30;;;;;;;0.75;0.32;;;23.60;41.40;;;;;;6101486;27;22417;-49
2022/04/06 15:39:50;;;;;;;0.20;0.10;;;23.70;41.60;;;;;;6114181;28;20158;-46
2022/04/06 15:42:53;;;;;;;1.55;0.40;;;23.50;41.70;;;;;;6105087;28;20042;-46
2022/04/06 15:45:54;;;;;;;0.45;0.10;;;23.60;41.80;;;;;;6149990;27;20089;-46
2022/04/06 15:48:56;;;;;;;1.02;0.45;;;23.60;42.00;;;;;;6152240;27;20039;-47
2022/04/06 15:51:58;;;;;;;0.50;0.20;;;23.60;42.20;;;;;;6118947;27;22878;-47
2022/04/06 15:55:00;;;;;;;0.20;0.10;;;23.60;42.30;;;;;;6119180;27;20119;-47
2022/04/06 15:58:02;;;;;;;1.15;0.38;;;23.60;42.40;;;;;;6164220;27;21078;-45
2022/04/06 16:01:03;;;;;;;1.27;0.30;;;23.60;42.60;;;;;;6171497;27;20158;-48
2022/04/06 16:04:05;;;;;;;0.45;0.20;;;23.60;42.60;;;;;;6137752;28;20184;-47
2022/04/06 16:07:07;;;;;;;0.40;0.20;;;23.60;43.50;;;;;;6165053;28;20050;-46
2022/04/06 16:10:10;;;;;;;0.20;0.10;;;23.60;43.10;;;;;;6155955;28;20856;-47
2022/04/06 16:13:12;;;;;;;0.30;0.20;;;23.60;43.20;;;;;;6168399;27;20043;-49
2022/04/06 16:16:14;;;;;;;1.95;0.32;;;23.50;43.20;;;;;;6175536;27;21261;-46